Savana De La Mar, Dominican Republic
Current Conditions -  °F | °C
As of 2:00 PM on Monday 22 Dec 2014 (Local Time) from MDCY Reporting Station
Few Clouds Few Clouds  
Wind Chill: 86°   Ceiling: Unl
Heat Index: 93°   Visibility: 6mi
Dew Point: 73°   Wind: 9mph
Humidity: 66%   Direction: 190°S
Pressure: 29.97"   Gusts: NA
Location:  19.05°N, 69.38°W
Report Text: MDCY 221800Z 19008KT 9999 FEW024 30/23 Q1015 NOSIG
Loading
Personal Weather Stations






























Interactive Weather Map New forecast layout! Learn more

10-Day Weather Forecast

Advertisements
Track Severe Weather on mobile